This is the latest recevied weather packets stored in our database for station/object JE3XST-13. If no packets are shown the sender has not sent any weather packets the latest 10 day(s).
| Time | Temp. | Humidity | Pressure | Rain* | Wind** | Luminosity | Snow |
|---|---|---|---|---|---|---|---|
| 1777720529 | 19.44° C | 63% | 1012.2 hPa | 0 mm | - | - | - |
| 1777718730 | 20.56° C | 61% | 1011.9 hPa | 0 mm | - | - | - |
| 1777716928 | 21.67° C | 50% | 1011.7 hPa | 0 mm | - | - | - |
| 1777715128 | 22.22° C | 54% | 1011.4 hPa | 0 mm | - | - | - |
| 1777713328 | 22.78° C | 44% | 1010.9 hPa | 0 mm | - | - | - |
| 1777711530 | 22.78° C | 44% | 1010.8 hPa | 0 mm | - | - | - |
| 1777709728 | 22.78° C | 46% | 1010.6 hPa | 0 mm | - | - | - |
| 1777707928 | 23.33° C | 48% | 1010.4 hPa | 0 mm | - | - | - |
| 1777706129 | 23.33° C | 48% | 1010.2 hPa | 0 mm | - | - | - |
| 1777704330 | 23.89° C | 48% | 1009.9 hPa | 0 mm | - | - | - |
| 1777702529 | 24.44° C | 47% | 1009.8 hPa | 0 mm | - | - | - |
| 1777700728 | 25° C | 46% | 1009.7 hPa | 0 mm | - | - | - |
| 1777698928 | 25.56° C | 43% | 1010 hPa | 0 mm | - | - | - |
| 1777697128 | 24.44° C | 48% | 1010.2 hPa | 0 mm | - | - | - |
| 1777695329 | 24.44° C | 48% | 1010.3 hPa | 0 mm | - | - | - |
| 1777693529 | 23.33° C | 50% | 1010.6 hPa | 0 mm | - | - | - |
| 1777691729 | 22.78° C | 51% | 1010.5 hPa | 0 mm | - | - | - |
| 1777689929 | 23.33° C | 49% | 1010.7 hPa | 0 mm | - | - | - |
| 1777688129 | 22.22° C | 49% | 1011.1 hPa | 0 mm | - | - | - |
| 1777686328 | 21.67° C | 51% | 1011.3 hPa | 0 mm | - | - | - |
| 1777684529 | 20.56° C | 58% | 1011.3 hPa | 0 mm | - | - | - |
| 1777682728 | 19.44° C | 62% | 1011.3 hPa | 0 mm | - | - | - |
| 1777680929 | 18.33° C | 65% | 1011.1 hPa | 0 mm | - | - | - |
| 1777679129 | 17.22° C | 69% | 1011.1 hPa | 0 mm | - | - | - |
| 1777677328 | 16.11° C | 77% | 1011 hPa | 0 mm | - | - | - |
* Rain latest hour (hover to see other rain measurements)
** Current wind speed in m/s (hover to see current wind gust speed)